createdAt,value
2022-12-23T00:01:45.899Z,100465.06
2022-12-23T00:04:12.466Z,100459.84
2022-12-23T00:06:39.051Z,100457.72
2022-12-23T00:09:05.531Z,100464.47
2022-12-23T00:11:31.999Z,100464.97
2022-12-23T00:14:21.670Z,100471.25
2022-12-23T00:16:50.197Z,100475.66
2022-12-23T00:19:16.891Z,100478.25
2022-12-23T00:21:43.327Z,100488.41
2022-12-23T00:24:11.379Z,100487.38
2022-12-23T00:26:37.859Z,100495.47
2022-12-23T00:29:04.291Z,100491.78
2022-12-23T00:31:30.910Z,100497.31
2022-12-23T00:33:57.432Z,100496.50
2022-12-23T00:36:29.016Z,100498.34
2022-12-23T00:39:20.040Z,100501.53
2022-12-23T00:42:05.242Z,100509.63
2022-12-23T00:44:32.446Z,100509.88
2022-12-23T00:46:58.953Z,100513.56
2022-12-23T00:49:43.756Z,100504.47
2022-12-23T00:52:13.465Z,100502.16
2022-12-23T00:54:40.272Z,100508.91
2022-12-23T00:57:06.754Z,100513.63
2022-12-23T00:59:33.553Z,100508.91
2022-12-23T01:02:18.919Z,100517.00
2022-12-23T01:05:04.156Z,100524.03
2022-12-23T01:07:30.593Z,100521.22
2022-12-23T01:09:57.061Z,100523.81
2022-12-23T01:12:23.502Z,100521.47
2022-12-23T01:14:49.978Z,100528.25
2022-12-23T01:17:16.491Z,100525.66
2022-12-23T01:19:43.187Z,100525.16
2022-12-23T01:22:09.836Z,100538.19
2022-12-23T01:24:36.400Z,100529.88
2022-12-23T01:27:02.922Z,100536.91
2022-12-23T01:29:30.096Z,100541.31
2022-12-23T01:31:56.827Z,100553.31
2022-12-23T01:34:23.282Z,100553.31
2022-12-23T01:36:49.896Z,100548.09
2022-12-23T01:39:16.397Z,100549.63
2022-12-23T01:42:21.281Z,100557.94
2022-12-23T01:44:59.187Z,100562.66
2022-12-23T01:47:40.535Z,100562.97
2022-12-23T01:50:13.040Z,100563.72
2022-12-23T01:52:47.913Z,100564.75
2022-12-23T01:55:19.288Z,100573.38
2022-12-23T01:57:47.119Z,100568.16
2022-12-23T02:00:33.206Z,100585.06
2022-12-23T02:03:18.881Z,100585.06
2022-12-23T02:05:46.977Z,100591.31
2022-12-23T02:08:34.512Z,100591.31
2022-12-23T02:11:27.842Z,100592.66
2022-12-23T02:14:45.565Z,100599.97
2022-12-23T02:17:39.326Z,100607.28
2022-12-23T02:20:17.374Z,100597.63
2022-12-23T02:23:15.421Z,100609.88
2022-12-23T02:25:55.386Z,100612.50
2022-12-23T02:28:59.534Z,100613.81
2022-12-23T02:31:49.319Z,100615.94
2022-12-23T02:34:40.400Z,100624.78
2022-12-23T02:37:18.071Z,100629.22
2022-12-23T02:40:02.996Z,100622.47
2022-12-23T02:42:39.719Z,100632.09
2022-12-23T02:45:20.137Z,100626.38
2022-12-23T02:47:52.566Z,100634.19
2022-12-23T02:50:28.767Z,100637.38
2022-12-23T02:53:00.427Z,100645.69
2022-12-23T02:55:32.322Z,100643.66
2022-12-23T02:58:03.110Z,100657.19
2022-12-23T03:00:30.710Z,100657.53
2022-12-23T03:02:57.361Z,100665.88
2022-12-23T03:05:26.455Z,100658.34
2022-12-23T03:07:55.027Z,100664.59
2022-12-23T03:10:46.387Z,100667.47
2022-12-23T03:13:12.935Z,100668.53
2022-12-23T03:16:12.116Z,100658.16
2022-12-23T03:19:03.566Z,100661.00
2022-12-23T03:21:39.770Z,100657.41
2022-12-23T03:24:18.038Z,100657.19
2022-12-23T03:26:57.660Z,100660.31
2022-12-23T03:29:44.025Z,100649.16
2022-12-23T03:32:13.334Z,100648.63
2022-12-23T03:34:44.421Z,100644.72
2022-12-23T03:37:14.369Z,100655.38
2022-12-23T03:39:47.247Z,100656.19
2022-12-23T03:42:29.081Z,100659.56
2022-12-23T03:45:36.213Z,100659.31
2022-12-23T03:47:50.806Z,100658.81
2022-12-23T03:50:20.301Z,100665.84
2022-12-23T03:52:58.114Z,100674.69
2022-12-23T03:55:33.530Z,100658.31
2022-12-23T03:58:17.991Z,100659.56
2022-12-23T04:00:50.677Z,100655.16
2022-12-23T04:03:22.968Z,100670.28
2022-12-23T04:05:59.779Z,100678.34
2022-12-23T04:08:31.066Z,100680.19
2022-12-23T04:10:58.550Z,100682.78
2022-12-23T04:13:27.316Z,100684.81
2022-12-23T04:15:54.264Z,100691.09
2022-12-23T04:18:20.801Z,100695.78
2022-12-23T04:20:47.234Z,100705.91
2022-12-23T04:23:13.644Z,100705.91
2022-12-23T04:25:40.125Z,100709.00
2022-12-23T04:28:06.723Z,100720.22
2022-12-23T04:30:34.581Z,100710.59
2022-12-23T04:33:01.994Z,100719.94
2022-12-23T04:35:29.086Z,100713.19
2022-12-23T04:37:55.523Z,100717.31
2022-12-23T04:40:22.031Z,100707.72
2022-12-23T04:42:48.437Z,100707.44
2022-12-23T04:45:15.134Z,100705.88
2022-12-23T04:47:41.598Z,100709.00
2022-12-23T04:50:13.173Z,100709.25
2022-12-23T04:52:39.569Z,100703.28
2022-12-23T04:55:06.604Z,100700.69
2022-12-23T04:57:33.144Z,100689.72
2022-12-23T04:59:59.611Z,100684.00
2022-12-23T05:02:26.185Z,100692.88
2022-12-23T05:04:52.791Z,100695.47
2022-12-23T05:07:19.467Z,100695.22
2022-12-23T05:09:45.957Z,100693.66
2022-12-23T05:12:12.596Z,100694.41
2022-12-23T05:14:39.155Z,100693.13
2022-12-23T05:17:07.940Z,100697.53
2022-12-23T05:19:34.693Z,100692.31
2022-12-23T05:22:01.231Z,100697.53
2022-12-23T05:24:27.667Z,100707.94
2022-12-23T05:26:59.653Z,100718.34
2022-12-23T05:29:27.090Z,100716.81
2022-12-23T05:31:53.829Z,100723.53
2022-12-23T05:34:20.821Z,100725.13
2022-12-23T05:36:47.320Z,100728.50
2022-12-23T05:39:13.862Z,100722.00
2022-12-23T05:41:40.550Z,100734.75
2022-12-23T05:44:07.080Z,100732.16
2022-12-23T05:46:33.840Z,100754.00
2022-12-23T05:49:00.536Z,100742.81
2022-12-23T05:51:27.175Z,100743.09
2022-12-23T05:53:53.656Z,100737.63
2022-12-23T05:56:20.156Z,100746.75
2022-12-23T05:58:46.601Z,100742.31
2022-12-23T06:01:14.287Z,100735.53
2022-12-23T06:03:40.921Z,100739.72
2022-12-23T06:06:07.607Z,100737.94
2022-12-23T06:08:34.115Z,100736.34
2022-12-23T06:11:00.574Z,100736.88
2022-12-23T06:13:27.110Z,100731.94
2022-12-23T06:15:53.508Z,100735.03
2022-12-23T06:18:19.958Z,100737.38
2022-12-23T06:20:47.754Z,100727.75
2022-12-23T06:23:14.280Z,100718.38
2022-12-23T06:25:40.851Z,100714.72
2022-12-23T06:28:07.973Z,100712.13
2022-12-23T06:30:35.104Z,100716.28
2022-12-23T06:33:01.952Z,100717.31
2022-12-23T06:35:28.470Z,100713.69
2022-12-23T06:37:54.965Z,100717.31
2022-12-23T06:40:21.509Z,100721.75
2022-12-23T06:42:47.962Z,100726.47
2022-12-23T06:45:14.690Z,100724.91
2022-12-23T06:47:41.207Z,100737.13
2022-12-23T06:50:09.079Z,100737.13
2022-12-23T06:52:35.563Z,100743.41
2022-12-23T06:55:01.946Z,100745.50
2022-12-23T06:57:28.405Z,100752.22
2022-12-23T06:59:54.961Z,100752.22
2022-12-23T07:02:21.452Z,100747.84
2022-12-23T07:04:48.017Z,100753.03
2022-12-23T07:07:14.485Z,100754.84
2022-12-23T07:09:40.980Z,100757.44
2022-12-23T07:12:07.754Z,100760.03
2022-12-23T07:14:34.261Z,100760.03
2022-12-23T07:17:01.076Z,100769.41
2022-12-23T07:19:27.580Z,100766.31
2022-12-23T07:21:54.313Z,100775.13
2022-12-23T07:24:21.066Z,100779.56
2022-12-23T07:26:47.536Z,100780.34
2022-12-23T07:29:14.111Z,100777.75
2022-12-23T07:31:41.210Z,100780.34
2022-12-23T07:34:08.510Z,100782.94
2022-12-23T07:36:35.298Z,100785.53
2022-12-23T07:39:01.768Z,100784.50
2022-12-23T07:41:28.292Z,100772.53
2022-12-23T07:43:54.771Z,100767.34
2022-12-23T07:46:21.390Z,100760.59
2022-12-23T07:48:47.965Z,100752.78
2022-12-23T07:51:14.540Z,100756.94
2022-12-23T07:53:41.089Z,100759.28
2022-12-23T07:56:07.971Z,100754.84
2022-12-23T07:58:34.528Z,100747.84
2022-12-23T08:01:03.171Z,100747.03
2022-12-23T08:03:29.916Z,100750.94
2022-12-23T08:06:08.420Z,100762.63
2022-12-23T08:08:35.784Z,100760.03
2022-12-23T08:11:04.582Z,100752.22
2022-12-23T08:13:33.087Z,100748.09
2022-12-23T08:16:01.211Z,100747.03
2022-12-23T08:18:30.567Z,100746.00
2022-12-23T08:21:19.334Z,100754.31
2022-12-23T08:23:47.379Z,100741.31
2022-12-23T08:26:17.645Z,100736.88
2022-12-23T08:28:44.989Z,100743.91
2022-12-23T08:31:21.493Z,100742.34
2022-12-23T08:33:50.561Z,100747.00
2022-12-23T08:36:23.023Z,100730.63
2022-12-23T08:38:52.177Z,100728.28
2022-12-23T08:41:23.093Z,100713.19
2022-12-23T08:43:49.954Z,100722.53
2022-12-23T08:46:16.583Z,100721.25
2022-12-23T08:48:49.403Z,100726.44
2022-12-23T08:51:17.650Z,100720.44
2022-12-23T08:53:44.802Z,100714.19
2022-12-23T08:56:14.721Z,100711.59
2022-12-23T08:58:43.554Z,100710.28
2022-12-23T09:01:12.827Z,100700.63
2022-12-23T09:03:40.443Z,100694.91
2022-12-23T09:06:10.552Z,100695.66
2022-12-23T09:08:37.700Z,100692.28
2022-12-23T09:11:04.634Z,100692.81
2022-12-23T09:13:35.672Z,100684.22
2022-12-23T09:16:03.542Z,100685.75
2022-12-23T09:18:30.031Z,100684.72
2022-12-23T09:21:01.491Z,100688.59
2022-12-23T09:23:28.272Z,100680.28
2022-12-23T09:25:55.384Z,100682.63
2022-12-23T09:28:22.212Z,100676.63
2022-12-23T09:30:48.784Z,100676.63
2022-12-23T09:33:15.561Z,100684.69
2022-12-23T09:35:42.017Z,100681.56
2022-12-23T09:38:08.626Z,100684.41
2022-12-23T09:40:37.472Z,100682.31
2022-12-23T09:43:14.548Z,100685.41
2022-12-23T09:46:06.221Z,100676.06
2022-12-23T09:48:38.910Z,100681.78
2022-12-23T09:51:06.179Z,100677.06
2022-12-23T09:54:03.829Z,100669.28
2022-12-23T09:57:02.677Z,100659.63
2022-12-23T09:59:44.440Z,100648.97
2022-12-23T10:02:31.696Z,100638.56
2022-12-23T10:05:32.451Z,100632.31
2022-12-23T10:08:04.090Z,100623.50
2022-12-23T10:10:42.871Z,100615.41
2022-12-23T10:13:38.967Z,100612.81
2022-12-23T10:16:13.001Z,100603.19
2022-12-23T10:19:02.601Z,100611.00
2022-12-23T10:21:34.700Z,100602.63
2022-12-23T10:24:12.531Z,100597.38
2022-12-23T10:26:46.929Z,100593.97
2022-12-23T10:29:19.901Z,100595.28
2022-12-23T10:32:15.126Z,100594.72
2022-12-23T10:35:31.562Z,100594.44
2022-12-23T10:38:11.144Z,100599.91
2022-12-23T10:41:12.048Z,100585.38
2022-12-23T10:43:51.646Z,100580.94
2022-12-23T10:46:18.580Z,100577.00
2022-12-23T10:49:05.943Z,100580.84
2022-12-23T10:51:41.877Z,100576.44
2022-12-23T10:54:17.080Z,100565.25
2022-12-23T10:56:44.533Z,100570.19
2022-12-23T10:59:15.336Z,100569.69
2022-12-23T11:01:47.663Z,100563.69
2022-12-23T11:04:17.964Z,100560.81
2022-12-23T11:06:48.409Z,100561.09
2022-12-23T11:09:19.180Z,100554.53
2022-12-23T11:12:01.346Z,100553.47
2022-12-23T11:14:50.663Z,100547.72
2022-12-23T11:17:24.699Z,100541.75
2022-12-23T11:20:14.174Z,100539.13
2022-12-23T11:22:52.167Z,100546.16
2022-12-23T11:25:27.552Z,100542.25
2022-12-23T11:28:19.538Z,100547.44
2022-12-23T11:30:50.384Z,100535.19
2022-12-23T11:33:45.535Z,100524.78
2022-12-23T11:36:25.028Z,100525.31
2022-12-23T11:39:05.012Z,100528.72
2022-12-23T11:41:38.524Z,100508.66
2022-12-23T11:44:28.895Z,100491.97
2022-12-23T11:46:55.570Z,100484.16
2022-12-23T11:49:26.918Z,100472.22
2022-12-23T11:52:11.943Z,100458.63
2022-12-23T11:54:39.530Z,100466.41
2022-12-23T11:57:15.547Z,100452.38
2022-12-23T11:59:51.522Z,100441.94
2022-12-23T12:02:39.773Z,100434.13
2022-12-23T12:05:15.335Z,100437.50
2022-12-23T12:07:44.055Z,100432.28
2022-12-23T12:10:19.400Z,100431.44
2022-12-23T12:12:52.767Z,100427.22
2022-12-23T12:15:41.152Z,100416.25
2022-12-23T12:18:13.230Z,100413.66
2022-12-23T12:20:45.482Z,100412.09
2022-12-23T12:23:21.193Z,100421.19
2022-12-23T12:25:53.759Z,100419.34
2022-12-23T12:28:34.510Z,100416.25
2022-12-23T12:31:35.472Z,100404.78
2022-12-23T12:34:53.404Z,100395.41
2022-12-23T12:37:41.049Z,100378.81
2022-12-23T12:40:16.777Z,100356.72
2022-12-23T12:42:52.563Z,100354.88
2022-12-23T12:45:38.072Z,100359.81
2022-12-23T12:48:26.858Z,100345.72
2022-12-23T12:51:12.544Z,100332.97
2022-12-23T12:54:05.188Z,100326.72
2022-12-23T12:56:40.753Z,100320.44
2022-12-23T12:59:16.864Z,100314.19
2022-12-23T13:02:28.389Z,100315.22
2022-12-23T13:05:20.286Z,100302.19
2022-12-23T13:08:04.980Z,100298.56
2022-12-23T13:11:02.937Z,100294.97
2022-12-23T13:13:39.348Z,100289.19
2022-12-23T13:16:25.404Z,100294.13
2022-12-23T13:19:03.824Z,100289.19
2022-12-23T13:21:48.425Z,100286.56
2022-12-23T13:24:28.083Z,100285.53
2022-12-23T13:27:18.865Z,100292.28
2022-12-23T13:29:58.071Z,100292.28
2022-12-23T13:32:45.274Z,100285.53
2022-12-23T13:35:22.819Z,100271.81
2022-12-23T13:38:01.496Z,100267.97
2022-12-23T13:40:49.223Z,100271.59
2022-12-23T13:43:20.338Z,100271.03
2022-12-23T13:45:49.003Z,100277.78
2022-12-23T13:48:38.152Z,100283.78
2022-12-23T13:51:20.326Z,100276.25
2022-12-23T13:54:04.952Z,100263.22
2022-12-23T13:56:59.510Z,100248.16
2022-12-23T13:59:39.375Z,100243.53
2022-12-23T14:02:37.622Z,100227.44
2022-12-23T14:05:10.479Z,100226.66
2022-12-23T14:07:44.878Z,100211.03
2022-12-23T14:10:19.965Z,100205.84
2022-12-23T14:12:47.698Z,100190.22
2022-12-23T14:15:38.720Z,100186.06
2022-12-23T14:18:40.332Z,100190.41
2022-12-23T14:21:19.925Z,100194.56
2022-12-23T14:24:10.910Z,100193.69
2022-12-23T14:26:51.904Z,100198.41
2022-12-23T14:29:59.889Z,100192.94
2022-12-23T14:32:40.946Z,100173.44
2022-12-23T14:35:46.654Z,100178.34
2022-12-23T14:38:15.656Z,100176.34
2022-12-23T14:40:42.092Z,100174.59
2022-12-23T14:43:27.334Z,100187.41
2022-12-23T14:45:54.937Z,100192.13
2022-12-23T14:48:37.167Z,100190.28
2022-12-23T14:51:09.416Z,100196.56
2022-12-23T14:53:57.087Z,100205.63
2022-12-23T14:56:38.816Z,100209.50
2022-12-23T14:59:10.769Z,100202.75
2022-12-23T15:01:42.042Z,100192.81
2022-12-23T15:04:20.637Z,100193.09
2022-12-23T15:06:50.997Z,100187.69
2022-12-23T15:09:30.895Z,100187.97
2022-12-23T15:12:05.986Z,100186.91
2022-12-23T15:14:46.418Z,100183.56
2022-12-23T15:17:29.885Z,100166.13
2022-12-23T15:20:18.513Z,100169.81
2022-12-23T15:22:46.742Z,100169.81
2022-12-23T15:25:25.352Z,100165.66
2022-12-23T15:28:00.840Z,100171.72
2022-12-23T15:30:36.501Z,100174.53
2022-12-23T15:33:27.786Z,100169.31
2022-12-23T15:35:53.704Z,100161.78
2022-12-23T15:38:22.432Z,100162.34
2022-12-23T15:41:22.485Z,100149.66
2022-12-23T15:43:49.195Z,100154.38
2022-12-23T15:46:28.524Z,100173.06
2022-12-23T15:48:56.747Z,100152.75
2022-12-23T15:51:49.958Z,100149.44
2022-12-23T15:54:31.119Z,100158.28
2022-12-23T15:57:00.508Z,100159.84
2022-12-23T15:59:31.719Z,100171.03
2022-12-23T16:01:58.999Z,100175.69
2022-12-23T16:04:29.249Z,100176.16
2022-12-23T16:06:56.602Z,100174.88
2022-12-23T16:09:31.550Z,100193.31
2022-12-23T16:12:20.623Z,100195.91
2022-12-23T16:15:22.783Z,100195.16
2022-12-23T16:17:49.319Z,100183.97
2022-12-23T16:20:15.678Z,100188.03
2022-12-23T16:22:44.582Z,100198.44
2022-12-23T16:25:25.653Z,100180.22
2022-12-23T16:28:03.551Z,100182.63
2022-12-23T16:30:36.309Z,100176.66
2022-12-23T16:33:06.806Z,100174.06
2022-12-23T16:35:39.208Z,100165.75
2022-12-23T16:38:16.596Z,100172.00
2022-12-23T16:40:44.804Z,100170.16
2022-12-23T16:43:11.368Z,100177.97
2022-12-23T16:45:38.557Z,100180.88
2022-12-23T16:48:20.414Z,100181.06
2022-12-23T16:50:47.565Z,100190.44
2022-12-23T16:53:14.446Z,100182.34
2022-12-23T16:55:48.222Z,100188.03
2022-12-23T16:58:17.870Z,100188.59
2022-12-23T17:00:44.728Z,100186.00
2022-12-23T17:03:16.380Z,100192.16
2022-12-23T17:05:44.130Z,100192.94
2022-12-23T17:08:10.553Z,100196.34
2022-12-23T17:10:38.742Z,100196.34
2022-12-23T17:13:05.361Z,100195.25
2022-12-23T17:15:32.385Z,100205.19
2022-12-23T17:17:58.905Z,100204.16
2022-12-23T17:20:25.446Z,100205.19
2022-12-23T17:22:54.983Z,100196.63
2022-12-23T17:25:26.361Z,100194.28
2022-12-23T17:27:53.651Z,100197.47
2022-12-23T17:30:25.283Z,100218.31
2022-12-23T17:32:56.514Z,100215.69
2022-12-23T17:35:24.806Z,100212.50
2022-12-23T17:37:51.884Z,100211.75
2022-12-23T17:40:19.647Z,100202.38
2022-12-23T17:42:47.336Z,100204.22
2022-12-23T17:45:26.365Z,100201.59
2022-12-23T17:47:52.933Z,100204.69
2022-12-23T17:50:20.289Z,100205.69
2022-12-23T17:52:47.049Z,100199.19
2022-12-23T17:55:22.530Z,100203.03
2022-12-23T17:57:49.031Z,100202.75
2022-12-23T18:00:22.672Z,100201.41
2022-12-23T18:02:54.568Z,100204.50
2022-12-23T18:05:24.106Z,100203.91
2022-12-23T18:07:51.825Z,100213.16
2022-12-23T18:10:22.555Z,100210.00
2022-12-23T18:12:55.773Z,100220.91
2022-12-23T18:15:30.094Z,100227.69
2022-12-23T18:17:56.593Z,100215.91
2022-12-23T18:20:24.225Z,100219.19
2022-12-23T18:22:52.772Z,100218.31
2022-12-23T18:25:27.060Z,100228.16
2022-12-23T18:27:54.532Z,100232.03
2022-12-23T18:30:21.827Z,100234.06
2022-12-23T18:32:49.017Z,100240.22
2022-12-23T18:35:44.058Z,100244.88
2022-12-23T18:38:11.095Z,100249.50
2022-12-23T18:40:38.757Z,100247.38
2022-12-23T18:43:05.599Z,100234.84
2022-12-23T18:45:41.949Z,100252.03
2022-12-23T18:48:09.447Z,100250.94
2022-12-23T18:50:38.636Z,100266.31
2022-12-23T18:53:06.325Z,100263.69
2022-12-23T18:55:33.597Z,100269.69
2022-12-23T18:58:00.954Z,100268.63
2022-12-23T19:00:30.722Z,100267.88
2022-12-23T19:02:57.608Z,100275.84
2022-12-23T19:05:27.305Z,100265.75
2022-12-23T19:07:56.102Z,100276.44
2022-12-23T19:10:36.121Z,100270.16
2022-12-23T19:13:02.581Z,100275.69
2022-12-23T19:15:29.222Z,100277.50
2022-12-23T19:17:55.717Z,100270.16
2022-12-23T19:20:22.232Z,100273.56
2022-12-23T19:22:49.255Z,100273.25
2022-12-23T19:25:18.352Z,100278.47
2022-12-23T19:27:46.010Z,100278.28
2022-12-23T19:30:15.856Z,100281.88
2022-12-23T19:32:42.696Z,100287.34
2022-12-23T19:35:12.472Z,100295.19
2022-12-23T19:37:39.076Z,100295.47
2022-12-23T19:40:06.829Z,100306.66
2022-12-23T19:42:36.230Z,100304.53
2022-12-23T19:45:02.808Z,100317.06
2022-12-23T19:47:29.259Z,100316.03
2022-12-23T19:49:55.896Z,100315.53
2022-12-23T19:52:22.417Z,100320.75
2022-12-23T19:54:48.924Z,100329.63
2022-12-23T19:57:15.410Z,100329.06
2022-12-23T19:59:41.949Z,100335.81
2022-12-23T20:02:14.033Z,100342.59
2022-12-23T20:04:40.836Z,100347.78
2022-12-23T20:07:07.826Z,100348.56
2022-12-23T20:09:34.310Z,100351.16
2022-12-23T20:12:01.828Z,100359.75
2022-12-23T20:14:32.312Z,100358.22
2022-12-23T20:17:00.890Z,100358.72
2022-12-23T20:19:27.715Z,100358.97
2022-12-23T20:21:54.169Z,100363.44
2022-12-23T20:24:20.672Z,100373.84
2022-12-23T20:26:47.609Z,100368.66
2022-12-23T20:29:14.353Z,100364.97
2022-12-23T20:31:41.279Z,100375.41
2022-12-23T20:34:11.839Z,100368.38
2022-12-23T20:36:38.476Z,100388.44
2022-12-23T20:39:05.877Z,100385.25
2022-12-23T20:41:32.840Z,100385.06
2022-12-23T20:46:46.093Z,100393.63
2022-12-23T20:49:12.811Z,100393.34
2022-12-23T20:51:39.261Z,100396.25
2022-12-23T20:54:05.849Z,100402.25
2022-12-23T20:56:32.363Z,100417.31
2022-12-23T20:58:59.998Z,100413.94
2022-12-23T21:01:29.880Z,100440.00
2022-12-23T21:03:58.335Z,100443.38
2022-12-23T21:06:25.697Z,100446.75
2022-12-23T21:08:52.654Z,100447.81
2022-12-23T21:11:19.375Z,100452.28
2022-12-23T21:13:50.135Z,100459.28
2022-12-23T21:16:17.291Z,100461.13
2022-12-23T21:18:46.731Z,100458.81
2022-12-23T21:21:13.346Z,100458.31
2022-12-23T21:23:41.853Z,100457.06
2022-12-23T21:26:11.950Z,100467.22
2022-12-23T21:28:39.940Z,100470.38
2022-12-23T21:31:07.390Z,100463.63
2022-12-23T21:33:39.074Z,100483.69
2022-12-23T21:36:06.719Z,100479.25
2022-12-23T21:38:39.849Z,100481.88
2022-12-23T21:41:09.409Z,100488.13
2022-12-23T21:43:36.332Z,100495.19
2022-12-23T21:46:06.159Z,100497.00
2022-12-23T21:48:35.185Z,100496.78
2022-12-23T21:51:07.020Z,100503.56
2022-12-23T21:53:36.126Z,100498.63
2022-12-23T21:56:09.500Z,100501.78
2022-12-23T21:58:37.080Z,100510.41
2022-12-23T22:01:08.362Z,100510.69
2022-12-23T22:03:35.457Z,100520.34
2022-12-23T22:06:13.329Z,100525.06
2022-12-23T22:08:40.174Z,100521.16
2022-12-23T22:11:08.899Z,100526.88
2022-12-23T22:13:36.003Z,100537.06
2022-12-23T22:16:02.646Z,100541.50
2022-12-23T22:18:31.480Z,100549.09
2022-12-23T22:21:00.334Z,100555.66
2022-12-23T22:23:26.753Z,100558.84
2022-12-23T22:25:54.413Z,100567.19
2022-12-23T22:28:23.257Z,100566.22
2022-12-23T22:30:49.738Z,100569.88
2022-12-23T22:33:16.241Z,100574.09
2022-12-23T22:35:43.197Z,100576.69
2022-12-23T22:38:09.951Z,100588.44
2022-12-23T22:40:36.362Z,100592.88
2022-12-23T22:43:03.044Z,100593.91
2022-12-23T22:45:29.605Z,100600.19
2022-12-23T22:47:56.198Z,100596.03
2022-12-23T22:50:22.878Z,100606.44
2022-12-23T22:52:49.350Z,100604.91
2022-12-23T22:55:15.913Z,100609.13
2022-12-23T22:57:42.321Z,100602.56
2022-12-23T23:00:12.633Z,100606.50
2022-12-23T23:02:39.512Z,100615.38
2022-12-23T23:05:12.475Z,100619.03
2022-12-23T23:07:39.938Z,100610.72
2022-12-23T23:10:07.444Z,100626.84
2022-12-23T23:12:33.959Z,100626.34
2022-12-23T23:15:00.435Z,100622.97
2022-12-23T23:17:28.696Z,100618.03
2022-12-23T23:19:55.863Z,100631.31
2022-12-23T23:22:24.910Z,100632.09
2022-12-23T23:24:52.206Z,100625.34
2022-12-23T23:27:19.026Z,100635.75
2022-12-23T23:29:45.654Z,100642.00
2022-12-23T23:32:12.342Z,100631.88
2022-12-23T23:34:38.948Z,100636.28
2022-12-23T23:37:05.406Z,100635.03
2022-12-23T23:39:32.160Z,100649.63
2022-12-23T23:41:58.983Z,100644.69
2022-12-23T23:44:25.515Z,100667.34
2022-12-23T23:46:52.079Z,100668.09
2022-12-23T23:49:18.542Z,100668.34
2022-12-23T23:51:45.092Z,100676.94
2022-12-23T23:54:11.617Z,100667.84
2022-12-23T23:56:39.510Z,100680.59
2022-12-23T23:59:07.018Z,100684.25
